createdAt,value
2018-11-04T00:02:56.284Z,34.93
2018-11-04T00:07:58.898Z,31.90
2018-11-04T00:13:01.458Z,33.90
2018-11-04T00:18:04.020Z,36.30
2018-11-04T00:23:06.610Z,31.93
2018-11-04T00:28:09.184Z,32.50
2018-11-04T00:33:12.573Z,32.50
2018-11-04T00:38:15.174Z,34.43
2018-11-04T00:43:17.773Z,35.57
2018-11-04T00:48:20.388Z,36.40
2018-11-04T00:53:22.958Z,37.53
2018-11-04T00:58:26.101Z,37.03
2018-11-04T01:03:28.689Z,37.93
2018-11-04T01:08:32.024Z,35.47
2018-11-04T01:13:34.616Z,33.97
2018-11-04T01:18:37.229Z,39.27
2018-11-04T01:23:39.806Z,35.67
2018-11-04T01:28:42.367Z,40.60
2018-11-04T01:33:44.912Z,37.67
2018-11-04T01:38:47.493Z,38.13
2018-11-04T01:43:50.050Z,36.87
2018-11-04T01:48:52.732Z,40.30
2018-11-04T01:53:55.300Z,37.77
2018-11-04T01:58:57.865Z,39.13
2018-11-04T02:04:00.433Z,38.60
2018-11-04T02:09:03.233Z,37.50
2018-11-04T02:14:06.004Z,39.37
2018-11-04T02:19:08.612Z,38.93
2018-11-04T02:24:11.176Z,38.73
2018-11-04T02:29:13.767Z,39.47
2018-11-04T02:34:16.312Z,41.20
2018-11-04T02:39:18.870Z,40.20
2018-11-04T02:44:21.483Z,40.13
2018-11-04T02:49:24.057Z,40.80
2018-11-04T02:54:26.692Z,40.10
2018-11-04T02:59:29.263Z,40.33
2018-11-04T03:04:31.838Z,43.93
2018-11-04T03:09:34.376Z,39.37
2018-11-04T03:14:36.939Z,39.70
2018-11-04T03:19:39.484Z,38.97
2018-11-04T03:24:42.153Z,37.30
2018-11-04T03:29:44.693Z,40.70
2018-11-04T03:34:47.336Z,40.17
2018-11-04T03:39:49.933Z,39.80
2018-11-04T03:44:52.488Z,36.43
2018-11-04T03:49:55.087Z,38.50
2018-11-04T03:54:57.628Z,35.13
2018-11-04T04:00:00.205Z,37.33
2018-11-04T04:05:02.855Z,35.57
2018-11-04T04:10:06.926Z,33.63
2018-11-04T04:15:10.659Z,37.63
2018-11-04T04:20:13.206Z,38.30
2018-11-04T04:25:15.771Z,38.60
2018-11-04T04:30:18.316Z,33.10
2018-11-04T04:35:20.884Z,34.27
2018-11-04T04:40:23.450Z,36.93
2018-11-04T04:45:26.039Z,34.80
2018-11-04T04:50:28.625Z,34.07
2018-11-04T04:55:31.171Z,32.37
2018-11-04T05:00:33.760Z,32.53
2018-11-04T05:05:36.277Z,30.00
2018-11-04T05:10:38.834Z,28.43
2018-11-04T05:15:41.468Z,27.90
2018-11-04T05:20:44.037Z,27.90
2018-11-04T05:25:46.605Z,28.50
2018-11-04T05:30:49.168Z,28.93
2018-11-04T05:35:51.728Z,29.40
2018-11-04T05:40:54.315Z,27.20
2018-11-04T05:45:56.956Z,28.00
2018-11-04T05:50:59.507Z,31.17
2018-11-04T05:56:02.044Z,28.67
2018-11-04T06:01:04.851Z,28.33
2018-11-04T06:06:07.409Z,26.47
2018-11-04T06:11:10.563Z,30.50
2018-11-04T06:16:13.133Z,28.80
2018-11-04T06:21:15.672Z,28.10
2018-11-04T06:26:18.234Z,29.40
2018-11-04T06:31:20.930Z,28.40
2018-11-04T06:36:23.519Z,25.63
2018-11-04T06:41:26.071Z,25.80
2018-11-04T06:46:28.710Z,26.60
2018-11-04T06:51:31.306Z,26.83
2018-11-04T06:56:33.897Z,26.33
2018-11-04T07:01:36.474Z,25.13
2018-11-04T07:06:39.044Z,22.57
2018-11-04T07:11:41.612Z,25.37
2018-11-04T07:16:44.600Z,27.57
2018-11-04T07:21:47.192Z,31.83
2018-11-04T07:26:49.767Z,24.53
2018-11-04T07:31:52.367Z,24.23
2018-11-04T07:36:54.929Z,21.90
2018-11-04T07:41:57.487Z,23.77
2018-11-04T07:47:00.048Z,21.87
2018-11-04T07:52:03.433Z,22.60
2018-11-04T07:57:06.144Z,22.73
2018-11-04T08:02:08.725Z,21.57
2018-11-04T08:07:11.372Z,23.03
2018-11-04T08:12:13.908Z,20.97
2018-11-04T08:17:16.480Z,21.93
2018-11-04T08:22:19.083Z,24.97
2018-11-04T08:27:21.679Z,19.73
2018-11-04T08:32:24.810Z,19.77
2018-11-04T08:37:27.371Z,20.27
2018-11-04T08:42:30.270Z,20.43
2018-11-04T08:47:32.915Z,21.80
2018-11-04T08:52:35.625Z,23.00
2018-11-04T08:57:38.167Z,18.70
2018-11-04T09:02:41.024Z,18.40
2018-11-04T09:07:43.634Z,19.37
2018-11-04T09:12:46.287Z,18.40
2018-11-04T09:17:49.419Z,18.53
2018-11-04T09:22:52.054Z,18.90
2018-11-04T09:27:54.689Z,17.10
2018-11-04T09:32:57.392Z,16.97
2018-11-04T09:37:59.992Z,17.43
2018-11-04T09:43:02.660Z,17.43
2018-11-04T09:48:05.652Z,17.57
2018-11-04T09:53:08.232Z,18.07
2018-11-04T09:58:10.838Z,15.87
2018-11-04T10:03:13.455Z,15.37
2018-11-04T10:08:16.075Z,16.63
2018-11-04T10:13:18.756Z,15.27
2018-11-04T10:18:21.357Z,14.83
2018-11-04T10:23:23.911Z,14.97
2018-11-04T10:28:26.480Z,14.40
2018-11-04T10:33:29.080Z,15.87
2018-11-04T10:38:31.658Z,14.03
2018-11-04T10:43:34.238Z,14.07
2018-11-04T10:48:36.840Z,15.30
2018-11-04T10:53:39.431Z,14.43
2018-11-04T10:58:42.047Z,14.03
2018-11-04T11:03:44.606Z,13.80
2018-11-04T11:08:47.240Z,14.23
2018-11-04T11:13:49.891Z,11.83
2018-11-04T11:18:52.549Z,12.43
2018-11-04T11:23:55.463Z,14.03
2018-11-04T11:28:58.010Z,14.27
2018-11-04T11:34:00.607Z,14.53
2018-11-04T11:39:05.548Z,17.07
2018-11-04T11:44:08.260Z,14.57
2018-11-04T11:49:10.909Z,15.27
2018-11-04T11:54:13.457Z,14.50
2018-11-04T11:59:18.411Z,16.47
2018-11-04T12:04:22.136Z,19.07
2018-11-04T12:09:25.720Z,17.87
2018-11-04T12:14:28.326Z,17.00
2018-11-04T12:19:30.936Z,17.70
2018-11-04T12:24:33.516Z,13.83
2018-11-04T12:29:36.133Z,17.57
2018-11-04T12:34:38.707Z,16.10
2018-11-04T12:39:41.302Z,16.90
2018-11-04T12:44:43.863Z,16.10
2018-11-04T12:49:46.476Z,14.00
2018-11-04T12:54:49.060Z,14.30
2018-11-04T12:59:51.716Z,15.27
2018-11-04T13:04:54.304Z,15.70
2018-11-04T13:09:56.894Z,15.17
2018-11-04T13:14:59.465Z,16.17
2018-11-04T13:20:02.044Z,20.13
2018-11-04T13:25:05.449Z,15.67
2018-11-04T13:30:09.536Z,21.03
2018-11-04T13:35:12.154Z,19.77
2018-11-04T13:40:14.740Z,14.47
2018-11-04T13:45:17.316Z,14.80
2018-11-04T13:50:19.972Z,14.27
2018-11-04T13:55:22.540Z,14.13
2018-11-04T14:00:25.167Z,13.53
2018-11-04T14:05:27.746Z,13.13
2018-11-04T14:10:30.396Z,14.33
2018-11-04T14:15:32.943Z,13.33
2018-11-04T14:20:35.524Z,12.97
2018-11-04T14:25:38.081Z,12.43
2018-11-04T14:30:40.651Z,15.07
2018-11-04T14:35:43.252Z,13.33
2018-11-04T14:40:45.849Z,12.53
2018-11-04T14:45:48.582Z,12.90
2018-11-04T14:50:51.132Z,12.20
2018-11-04T14:55:53.734Z,13.27
2018-11-04T15:00:56.320Z,12.30
2018-11-04T15:05:58.949Z,15.03
2018-11-04T15:11:01.574Z,14.13
2018-11-04T15:16:04.233Z,16.90
2018-11-04T15:21:06.860Z,17.77
2018-11-04T15:26:09.436Z,21.73
2018-11-04T15:31:12.043Z,17.57
2018-11-04T15:36:14.622Z,20.37
2018-11-04T15:41:17.246Z,20.23
2018-11-04T15:46:19.828Z,22.87
2018-11-04T15:51:22.469Z,17.67
2018-11-04T16:00:51.671Z,21.30
2018-11-04T16:05:54.379Z,16.70
2018-11-04T16:10:56.940Z,22.23
2018-11-04T16:15:59.646Z,25.10
2018-11-04T16:21:02.342Z,22.17
2018-11-04T16:26:04.966Z,17.70
2018-11-04T16:31:07.599Z,23.87
2018-11-04T16:36:10.247Z,22.57
2018-11-04T16:41:12.829Z,23.30
2018-11-04T16:46:15.490Z,23.07
2018-11-04T16:51:18.124Z,25.37
2018-11-04T16:56:20.932Z,27.40
2018-11-04T17:01:23.457Z,25.70
2018-11-04T17:06:26.084Z,20.13
2018-11-04T17:11:29.159Z,18.23
2018-11-04T17:16:31.735Z,19.23
2018-11-04T17:21:35.303Z,18.57
2018-11-04T17:26:37.913Z,19.43
2018-11-04T17:31:40.617Z,16.83
2018-11-04T17:36:43.236Z,15.67
2018-11-04T17:41:45.829Z,15.97
2018-11-04T17:46:48.425Z,20.13
2018-11-04T17:51:51.113Z,16.00
2018-11-04T17:56:53.734Z,14.37
2018-11-04T18:01:56.414Z,16.07
2018-11-04T18:06:59.213Z,15.77
2018-11-04T18:12:01.834Z,14.23
2018-11-04T18:17:04.500Z,14.80
2018-11-04T18:22:07.123Z,13.90
2018-11-04T18:27:09.705Z,16.13
2018-11-04T18:32:12.417Z,17.40
2018-11-04T18:37:14.985Z,18.57
2018-11-04T18:42:17.602Z,15.70
2018-11-04T18:47:20.272Z,20.33
2018-11-04T18:52:23.004Z,15.10
2018-11-04T18:57:25.646Z,28.00
2018-11-04T19:02:28.249Z,30.23
2018-11-04T19:07:30.941Z,22.57
2018-11-04T19:12:34.195Z,25.47
2018-11-04T19:17:36.946Z,21.40
2018-11-04T19:22:39.599Z,17.30
2018-11-04T19:27:42.453Z,16.43
2018-11-04T19:32:45.529Z,15.07
2018-11-04T19:37:48.201Z,31.23
2018-11-04T19:42:50.879Z,29.67
2018-11-04T19:47:53.593Z,27.77
2018-11-04T19:52:56.213Z,24.80
2018-11-04T19:57:58.908Z,21.60
2018-11-04T20:03:01.621Z,20.97
2018-11-04T20:08:04.567Z,15.67
2018-11-04T20:13:12.920Z,19.40
2018-11-04T20:18:21.071Z,20.27
2018-11-04T20:23:23.687Z,17.53
2018-11-04T20:28:26.371Z,18.67
2018-11-04T20:33:29.017Z,18.20
2018-11-04T20:38:37.481Z,18.30
2018-11-04T20:43:40.098Z,16.47
2018-11-04T20:48:48.257Z,19.47
2018-11-04T20:53:51.079Z,22.50
2018-11-04T20:58:53.746Z,22.77
2018-11-04T21:03:56.416Z,23.57
2018-11-04T21:08:58.921Z,21.90
2018-11-04T21:14:01.551Z,23.00
2018-11-04T21:19:04.187Z,25.37
2018-11-04T21:24:06.816Z,29.17
2018-11-04T21:29:09.674Z,28.90
2018-11-04T21:34:12.057Z,23.33
2018-11-04T21:39:14.696Z,23.27
2018-11-04T21:44:17.580Z,21.77
2018-11-04T21:49:20.016Z,25.83
2018-11-04T21:54:22.663Z,26.40
2018-11-04T21:59:25.349Z,31.17
2018-11-04T22:04:27.946Z,28.97
2018-11-04T22:09:30.620Z,26.47
2018-11-04T22:14:33.237Z,31.23
2018-11-04T22:19:36.522Z,29.00
2018-11-04T22:24:39.096Z,25.70
2018-11-04T22:29:41.704Z,32.97
2018-11-04T22:34:44.304Z,30.90
2018-11-04T22:39:46.922Z,28.40
2018-11-04T22:44:49.537Z,35.17
2018-11-04T22:49:53.067Z,39.40
2018-11-04T22:54:55.656Z,41.73
2018-11-04T22:59:58.223Z,40.60
2018-11-04T23:05:06.489Z,49.10
2018-11-04T23:10:09.148Z,48.93
2018-11-04T23:15:11.750Z,46.37
2018-11-04T23:20:14.309Z,38.17
2018-11-04T23:25:16.915Z,39.60
2018-11-04T23:30:19.717Z,38.07
2018-11-04T23:35:22.289Z,31.77
2018-11-04T23:40:24.954Z,39.43
2018-11-04T23:45:27.544Z,38.40
2018-11-04T23:50:30.141Z,34.60
2018-11-04T23:55:32.719Z,31.03
